Time;durP1;ratioP1;P1;durP2;ratioP2;P2;SDS_P1;SDS_P2;PMS_P1;PMS_P2;Temp;Humidity;BMP_temperature;BMP_pressure;BME280_temperature;BME280_humidity;BME280_pressure;Samples;Min_cycle;Max_cycle;Signal;HPM_P1;HPM_P2
2024/03/24 00:02:21;;;;;;;7.13;3.63;;;3.80;99.90;;;;;;4846241;29;20185;-86
2024/03/24 00:04:47;;;;;;;5.93;3.30;;;3.90;99.90;;;;;;4846562;29;20275;-87
2024/03/24 00:07:12;;;;;;;4.93;3.00;;;3.90;99.90;;;;;;4846235;29;20181;-85
2024/03/24 00:09:38;;;;;;;8.80;3.40;;;3.90;99.90;;;;;;4846433;29;20189;-87
2024/03/24 00:12:07;;;;;;;6.90;3.60;;;3.90;99.90;;;;;;4846377;29;20185;-87
2024/03/24 00:14:33;;;;;;;4.83;3.13;;;3.90;99.90;;;;;;4846299;29;20634;-88
2024/03/24 00:16:58;;;;;;;3.77;3.10;;;4.00;99.90;;;;;;4846634;29;20267;-87
2024/03/24 00:19:24;;;;;;;5.30;3.30;;;4.00;99.90;;;;;;4846427;29;20205;-87
2024/03/24 00:21:50;;;;;;;8.67;4.10;;;4.00;99.90;;;;;;4846381;29;20220;-86
2024/03/24 00:24:15;;;;;;;5.67;3.67;;;4.00;99.90;;;;;;4846523;29;20208;-87
2024/03/24 00:26:41;;;;;;;7.47;4.13;;;4.00;99.90;;;;;;4848215;29;20248;-86
2024/03/24 00:29:07;;;;;;;6.37;3.90;;;4.00;99.90;;;;;;4849769;29;20216;-87
2024/03/24 00:31:34;;;;;;;7.13;4.50;;;4.00;99.90;;;;;;4849908;29;20187;-87
2024/03/24 00:34:00;;;;;;;6.13;4.13;;;4.00;99.90;;;;;;4849928;29;20192;-86
2024/03/24 00:36:25;;;;;;;6.53;4.30;;;4.00;99.90;;;;;;4866197;29;20177;-87
2024/03/24 00:38:51;;;;;;;9.00;4.57;;;4.10;99.90;;;;;;4849708;29;20253;-87
2024/03/24 00:41:18;;;;;;;7.60;4.43;;;4.00;99.90;;;;;;4849472;29;20189;-87
2024/03/24 00:43:43;;;;;;;7.23;4.73;;;4.10;99.90;;;;;;4849496;29;20206;-87
2024/03/24 00:46:09;;;;;;;8.43;5.10;;;4.10;99.90;;;;;;4849538;29;20568;-87
2024/03/24 00:48:35;;;;;;;7.03;5.03;;;4.00;99.90;;;;;;4849516;29;20220;-87
2024/03/24 00:51:06;;;;;;;10.03;4.67;;;4.10;99.90;;;;;;4849447;29;20271;-87
2024/03/24 00:53:32;;;;;;;7.53;5.37;;;4.10;99.90;;;;;;4849621;29;20208;-88
2024/03/24 00:55:58;;;;;;;8.80;4.63;;;4.10;99.90;;;;;;4849501;29;20284;-88
2024/03/24 00:58:23;;;;;;;6.23;4.43;;;4.00;99.90;;;;;;4848914;29;20236;-89
2024/03/24 01:00:49;;;;;;;6.37;4.57;;;4.10;99.90;;;;;;4849340;29;20192;-88
2024/03/24 01:03:15;;;;;;;9.50;5.00;;;4.10;99.90;;;;;;4849583;29;20177;-86
2024/03/24 01:05:41;;;;;;;7.17;5.00;;;4.00;99.90;;;;;;4849183;29;20212;-87
2024/03/24 01:08:06;;;;;;;9.53;5.30;;;4.00;99.90;;;;;;4849863;29;20208;-88
2024/03/24 01:10:37;;;;;;;9.00;5.00;;;4.00;99.90;;;;;;4849396;29;20275;-87
2024/03/24 01:13:07;;;;;;;6.73;4.80;;;4.00;99.90;;;;;;4849574;29;20274;-87
2024/03/24 01:15:33;;;;;;;7.17;4.97;;;4.10;99.90;;;;;;4864856;29;20184;-86
2024/03/24 01:17:59;;;;;;;9.37;4.87;;;4.10;99.90;;;;;;4848981;29;20736;-87
2024/03/24 01:20:25;;;;;;;7.70;4.97;;;4.00;99.90;;;;;;4849426;29;20212;-87
2024/03/24 01:22:52;;;;;;;8.13;5.10;;;4.00;99.90;;;;;;4849066;29;20271;-85
2024/03/24 01:25:18;;;;;;;9.33;5.13;;;4.00;99.90;;;;;;4848837;29;20177;-87
2024/03/24 01:27:44;;;;;;;7.80;5.17;;;4.10;99.90;;;;;;4848888;29;20188;-87
2024/03/24 01:30:11;;;;;;;10.13;5.13;;;4.10;99.90;;;;;;4848545;29;20196;-86
2024/03/24 01:32:40;;;;;;;6.63;5.10;;;4.10;99.90;;;;;;4848633;29;20181;-88
2024/03/24 01:35:06;;;;;;;5.83;4.27;;;4.00;99.90;;;;;;4848686;29;20232;-87
2024/03/24 01:37:31;;;;;;;6.10;4.77;;;4.00;99.90;;;;;;4863366;29;20185;-89
2024/03/24 01:39:57;;;;;;;6.67;5.17;;;4.00;99.90;;;;;;4848671;29;20616;-87
2024/03/24 01:42:23;;;;;;;5.57;4.63;;;4.00;99.90;;;;;;4848628;29;20648;-88
2024/03/24 01:44:49;;;;;;;6.77;4.80;;;4.00;99.90;;;;;;4848382;29;20274;-88
2024/03/24 01:47:14;;;;;;;7.67;4.70;;;3.90;99.90;;;;;;4848570;29;20683;-87
2024/03/24 01:49:40;;;;;;;7.60;4.77;;;3.90;99.90;;;;;;4864885;29;20181;-86
2024/03/24 01:52:06;;;;;;;6.97;4.70;;;3.90;99.90;;;;;;5229438;24;20572;-81
2024/03/24 01:54:34;;;;;;;9.70;5.37;;;3.90;99.90;;;;;;4825323;29;20648;-85
2024/03/24 01:57:00;;;;;;;7.63;4.83;;;3.90;99.90;;;;;;4810825;29;20196;-84
2024/03/24 01:59:26;;;;;;;6.33;4.60;;;3.90;99.90;;;;;;4827133;29;20224;-83
2024/03/24 02:01:52;;;;;;;8.17;5.00;;;3.90;99.90;;;;;;4825880;29;20182;-84
2024/03/24 02:04:18;;;;;;;7.20;4.60;;;3.90;99.90;;;;;;4827217;29;20182;-83
2024/03/24 02:06:43;;;;;;;7.67;4.83;;;3.80;99.90;;;;;;4826994;29;20551;-82
2024/03/24 02:09:09;;;;;;;8.13;5.13;;;3.80;99.90;;;;;;4826653;29;20224;-83
2024/03/24 02:11:35;;;;;;;6.77;4.73;;;3.80;99.90;;;;;;4826903;29;20261;-83
2024/03/24 02:14:02;;;;;;;8.23;5.17;;;3.80;99.90;;;;;;4826846;29;20189;-84
2024/03/24 02:16:28;;;;;;;8.17;5.07;;;3.80;99.90;;;;;;4827031;29;20186;-83
2024/03/24 02:18:54;;;;;;;8.60;4.93;;;3.80;99.90;;;;;;4826599;29;20249;-82
2024/03/24 02:21:20;;;;;;;6.93;4.77;;;3.80;99.90;;;;;;4827012;29;20182;-84
2024/03/24 02:23:50;;;;;;;6.27;5.00;;;3.80;99.90;;;;;;4822553;29;20189;-83
2024/03/24 02:26:16;;;;;;;6.60;5.17;;;3.70;99.90;;;;;;4844912;29;20170;-84
2024/03/24 02:28:43;;;;;;;7.17;4.90;;;3.70;99.90;;;;;;4844896;29;20188;-85
2024/03/24 02:31:09;;;;;;;6.83;4.80;;;3.70;99.90;;;;;;4828349;29;20189;-82
2024/03/24 02:33:36;;;;;;;7.03;4.87;;;3.70;99.90;;;;;;4843912;29;20237;-84
2024/03/24 02:36:03;;;;;;;8.57;4.93;;;3.70;99.90;;;;;;4844787;29;20182;-85
2024/03/24 02:38:29;;;;;;;5.73;4.00;;;3.60;99.90;;;;;;4844519;29;20276;-84
2024/03/24 02:40:54;;;;;;;5.37;4.57;;;3.60;99.90;;;;;;4844721;29;20260;-84
2024/03/24 02:43:22;;;;;;;8.77;4.63;;;3.60;99.90;;;;;;4828135;29;20189;-85
2024/03/24 02:45:57;;;;;;;6.83;4.80;;;3.60;99.90;;;;;;4844674;29;20256;-84
2024/03/24 02:48:23;;;;;;;7.17;4.10;;;3.60;99.90;;;;;;4844461;29;20257;-84
2024/03/24 02:50:49;;;;;;;6.60;4.67;;;3.60;99.90;;;;;;4827079;29;20239;-87
2024/03/24 02:53:16;;;;;;;6.53;4.43;;;3.60;99.90;;;;;;4843996;29;20272;-86
2024/03/24 02:55:48;;;;;;;8.07;4.70;;;3.60;99.90;;;;;;4844486;29;20648;-84
2024/03/24 02:58:15;;;;;;;8.20;4.67;;;3.60;99.90;;;;;;4827730;29;20315;-84
2024/03/24 03:00:41;;;;;;;8.10;5.00;;;3.60;99.90;;;;;;4844317;29;20213;-83
2024/03/24 03:03:07;;;;;;;8.67;4.77;;;3.60;99.90;;;;;;4844163;29;20180;-83
2024/03/24 03:08:21;;;;;;;10.03;4.73;;;3.70;99.90;;;;;;4844116;29;20326;-83
2024/03/24 03:10:47;;;;;;;11.43;4.57;;;3.60;99.90;;;;;;4842824;29;20276;-85
2024/03/24 03:13:13;;;;;;;7.77;4.43;;;3.60;99.90;;;;;;4843837;29;20197;-84
2024/03/24 03:15:38;;;;;;;7.43;4.87;;;3.70;99.90;;;;;;4842917;29;20196;-83
2024/03/24 03:18:06;;;;;;;7.60;4.50;;;3.70;99.90;;;;;;4843710;29;20221;-85
2024/03/24 03:20:32;;;;;;;6.57;4.67;;;3.70;99.90;;;;;;4827573;29;20245;-84
2024/03/24 03:22:58;;;;;;;6.17;4.60;;;3.70;99.90;;;;;;4843517;29;20204;-84
2024/03/24 03:25:23;;;;;;;6.80;4.50;;;3.70;99.90;;;;;;4842691;29;20529;-82
2024/03/24 03:27:49;;;;;;;5.03;4.27;;;3.70;99.90;;;;;;4843700;29;20531;-83
2024/03/24 03:30:15;;;;;;;8.17;5.10;;;3.70;99.90;;;;;;4843820;29;20189;-83
2024/03/24 03:32:40;;;;;;;7.40;4.10;;;3.70;99.90;;;;;;4843607;29;20189;-83
2024/03/24 03:35:06;;;;;;;7.67;4.53;;;3.70;99.90;;;;;;4827328;29;20194;-83
2024/03/24 03:37:32;;;;;;;7.83;4.40;;;3.70;99.90;;;;;;4842013;29;20192;-83
2024/03/24 03:39:58;;;;;;;7.80;4.40;;;3.70;99.90;;;;;;4842343;29;20185;-83
2024/03/24 03:42:23;;;;;;;7.53;4.30;;;3.80;99.90;;;;;;4843612;29;20185;-84
2024/03/24 03:44:50;;;;;;;10.57;5.00;;;3.80;99.90;;;;;;4843589;29;20315;-85
2024/03/24 03:47:18;;;;;;;7.27;4.33;;;3.80;99.90;;;;;;4843497;29;20177;-84
2024/03/24 03:49:50;;;;;;;8.67;4.27;;;3.90;99.90;;;;;;4843469;29;20177;-83
2024/03/24 03:52:16;;;;;;;6.73;4.50;;;3.90;99.90;;;;;;4841971;29;20233;-83
2024/03/24 03:54:43;;;;;;;8.57;4.30;;;3.90;99.90;;;;;;4843286;29;20185;-83
2024/03/24 03:57:08;;;;;;;5.10;4.27;;;3.90;99.90;;;;;;4827362;29;20208;-84
2024/03/24 03:59:34;;;;;;;6.37;4.33;;;3.90;99.90;;;;;;4827240;29;20545;-84
2024/03/24 04:01:59;;;;;;;5.93;4.23;;;3.90;99.90;;;;;;4848220;29;20209;-86
2024/03/24 04:04:28;;;;;;;4.93;4.30;;;3.90;99.90;;;;;;4833363;29;20181;-85
2024/03/24 04:06:55;;;;;;;8.50;4.07;;;3.90;99.90;;;;;;4833276;29;20177;-83
2024/03/24 04:09:21;;;;;;;7.80;4.57;;;3.90;99.90;;;;;;4848383;29;20185;-86
2024/03/24 04:11:47;;;;;;;5.73;3.83;;;3.90;99.90;;;;;;4849731;29;20636;-84
2024/03/24 04:14:12;;;;;;;6.83;4.00;;;3.90;99.90;;;;;;4848464;29;20185;-84
2024/03/24 04:16:41;;;;;;;8.83;4.20;;;3.90;99.90;;;;;;4833346;29;20633;-86
2024/03/24 04:19:08;;;;;;;5.77;4.07;;;3.90;99.90;;;;;;4850069;29;20301;-84
2024/03/24 04:21:34;;;;;;;5.00;3.60;;;4.00;99.90;;;;;;4849616;29;20181;-85
2024/03/24 04:24:01;;;;;;;6.37;4.20;;;4.00;99.90;;;;;;4849049;29;20234;-83
2024/03/24 04:26:27;;;;;;;7.10;4.17;;;4.10;99.90;;;;;;4849567;29;20616;-83
2024/03/24 04:28:52;;;;;;;6.63;3.97;;;4.00;99.90;;;;;;4833148;29;20308;-84
2024/03/24 04:31:18;;;;;;;6.83;4.20;;;4.10;99.90;;;;;;4848286;29;20193;-85
2024/03/24 04:33:44;;;;;;;7.17;4.10;;;4.10;99.90;;;;;;4832960;29;20189;-85
2024/03/24 04:36:09;;;;;;;6.73;3.70;;;4.10;99.90;;;;;;4848221;29;20624;-81
2024/03/24 04:38:35;;;;;;;5.07;3.67;;;4.10;99.90;;;;;;4849211;29;20205;-84
2024/03/24 04:41:01;;;;;;;5.67;3.50;;;4.10;99.90;;;;;;4849381;29;20188;-84
2024/03/24 04:43:28;;;;;;;8.80;3.83;;;4.10;99.90;;;;;;4848049;29;20276;-84
2024/03/24 04:45:53;;;;;;;5.17;3.60;;;4.10;99.90;;;;;;4849383;29;20264;-84
2024/03/24 04:48:20;;;;;;;8.70;3.73;;;4.00;99.90;;;;;;4849244;29;20709;-84
2024/03/24 04:50:45;;;;;;;5.33;3.20;;;4.10;99.90;;;;;;4848910;29;20664;-85
2024/03/24 04:53:11;;;;;;;11.27;3.80;;;4.10;99.90;;;;;;4832276;29;20241;-83
2024/03/24 04:55:38;;;;;;;7.57;3.43;;;4.10;99.90;;;;;;4848076;29;20197;-84
2024/03/24 04:58:04;;;;;;;5.10;3.23;;;4.10;99.90;;;;;;4832756;29;20212;-85
2024/03/24 05:00:29;;;;;;;6.63;3.20;;;4.10;99.90;;;;;;4849122;29;20185;-83
2024/03/24 05:02:55;;;;;;;4.07;3.00;;;4.10;99.90;;;;;;4849167;29;20197;-83
2024/03/24 05:05:22;;;;;;;4.60;3.50;;;4.10;99.90;;;;;;4848094;29;20188;-84
2024/03/24 05:07:48;;;;;;;6.00;3.70;;;4.10;99.90;;;;;;4832577;29;20177;-85
2024/03/24 05:10:14;;;;;;;6.73;3.73;;;4.10;99.90;;;;;;4832792;29;20329;-82
2024/03/24 05:12:40;;;;;;;4.00;3.10;;;4.10;99.90;;;;;;4830563;29;20218;-84
2024/03/24 05:15:06;;;;;;;4.90;3.20;;;4.00;99.90;;;;;;4829834;29;20685;-86
2024/03/24 05:17:32;;;;;;;5.70;3.23;;;4.00;99.90;;;;;;4829621;29;20622;-82
2024/03/24 05:19:58;;;;;;;4.00;3.13;;;4.10;99.90;;;;;;4846350;29;20216;-84
2024/03/24 05:22:23;;;;;;;5.63;3.60;;;4.00;99.90;;;;;;4846079;29;20188;-83
2024/03/24 05:24:50;;;;;;;5.07;3.13;;;4.10;99.90;;;;;;4845810;29;20522;-83
2024/03/24 05:27:15;;;;;;;5.70;3.63;;;4.10;99.90;;;;;;4846039;29;20170;-85
2024/03/24 05:29:41;;;;;;;7.43;3.60;;;4.20;99.90;;;;;;4829403;29;20189;-82
2024/03/24 05:32:07;;;;;;;6.97;3.67;;;4.10;99.90;;;;;;4844734;29;20208;-83
2024/03/24 05:34:34;;;;;;;6.50;3.60;;;4.10;99.90;;;;;;4846021;29;20283;-84
2024/03/24 05:36:59;;;;;;;5.40;3.30;;;4.10;99.90;;;;;;4845885;29;20169;-82
2024/03/24 05:39:25;;;;;;;4.90;3.47;;;4.20;99.90;;;;;;4845391;29;20242;-84
2024/03/24 05:41:51;;;;;;;7.93;3.60;;;4.10;99.90;;;;;;4845734;29;20182;-84
2024/03/24 05:44:17;;;;;;;4.30;3.40;;;4.20;99.90;;;;;;4845624;29;20214;-84
2024/03/24 05:46:43;;;;;;;4.93;3.63;;;4.30;99.90;;;;;;4844372;29;20233;-82
2024/03/24 05:49:12;;;;;;;6.10;3.80;;;4.30;99.90;;;;;;4845651;29;20208;-84
2024/03/24 05:51:38;;;;;;;6.70;3.60;;;4.30;99.90;;;;;;4844250;29;20309;-84
2024/03/24 05:54:04;;;;;;;8.03;3.83;;;4.30;99.90;;;;;;4828562;29;20344;-83
2024/03/24 05:56:30;;;;;;;5.87;4.13;;;4.30;99.90;;;;;;4845498;29;20197;-82
2024/03/24 05:58:55;;;;;;;9.17;4.40;;;4.20;99.90;;;;;;4844447;29;20221;-84
2024/03/24 06:01:23;;;;;;;5.83;3.97;;;4.20;99.90;;;;;;4829056;29;20308;-87
2024/03/24 06:03:49;;;;;;;6.00;4.33;;;4.20;99.90;;;;;;4828969;29;20672;-85
2024/03/24 06:06:15;;;;;;;8.03;4.33;;;4.20;99.90;;;;;;4845406;29;20184;-84
2024/03/24 06:08:41;;;;;;;6.53;4.13;;;4.10;99.90;;;;;;4844080;29;20228;-85
2024/03/24 06:11:07;;;;;;;8.70;4.73;;;4.10;99.90;;;;;;4845252;29;20217;-85
2024/03/24 06:13:32;;;;;;;5.27;4.33;;;4.10;99.90;;;;;;4844174;29;20275;-84
2024/03/24 06:16:00;;;;;;;6.60;4.40;;;4.10;99.90;;;;;;4845089;29;20193;-84
2024/03/24 06:18:26;;;;;;;6.60;4.47;;;4.10;99.90;;;;;;4828873;29;20224;-84
2024/03/24 06:20:53;;;;;;;7.33;4.43;;;4.10;99.90;;;;;;4828669;29;20185;-83
2024/03/24 06:23:19;;;;;;;6.87;4.47;;;4.10;99.90;;;;;;4844821;29;20222;-84
2024/03/24 06:25:44;;;;;;;9.07;5.10;;;4.10;99.90;;;;;;4843921;29;20189;-86
2024/03/24 06:28:10;;;;;;;7.07;4.63;;;4.10;99.90;;;;;;4845138;29;20610;-84
2024/03/24 06:30:36;;;;;;;6.60;4.63;;;4.10;99.90;;;;;;4844915;29;20181;-85
2024/03/24 06:33:02;;;;;;;6.63;4.30;;;4.10;99.90;;;;;;4843582;29;20241;-86
2024/03/24 06:35:27;;;;;;;6.57;4.60;;;4.20;99.90;;;;;;4828239;29;20200;-82
2024/03/24 06:37:53;;;;;;;7.63;4.40;;;4.20;99.90;;;;;;4843595;29;20227;-82
2024/03/24 06:40:19;;;;;;;8.93;4.80;;;4.20;99.90;;;;;;4844520;29;20647;-83
2024/03/24 06:43:09;;;;;;;7.73;4.77;;;4.30;99.90;;;;;;4843440;29;20276;-84
2024/03/24 06:45:34;;;;;;;7.23;4.90;;;4.30;99.90;;;;;;4844117;29;20193;-84
2024/03/24 06:48:05;;;;;;;5.80;4.50;;;4.30;99.90;;;;;;4843358;29;20589;-84
2024/03/24 06:53:06;;;;;;;5.70;3.73;;;4.30;99.90;;;;;;5482697;23;20296;-89
2024/03/24 06:55:34;;;;;;;5.03;4.17;;;4.40;99.90;;;;;;4848176;29;20188;-88
2024/03/24 06:58:00;;;;;;;6.27;4.13;;;4.40;99.90;;;;;;4864075;29;20628;-88
2024/03/24 07:00:26;;;;;;;6.40;4.10;;;4.50;99.90;;;;;;4846723;29;20267;-88
2024/03/24 07:02:51;;;;;;;7.40;3.93;;;4.50;99.90;;;;;;4862619;29;20288;-89
2024/03/24 07:05:19;;;;;;;4.37;3.90;;;4.50;99.90;;;;;;4862518;29;20181;-88
2024/03/24 07:07:45;;;;;;;6.20;4.03;;;4.60;99.90;;;;;;4862960;29;20329;-87
2024/03/24 07:10:10;;;;;;;6.13;3.80;;;4.60;99.90;;;;;;4862432;29;20212;-85
2024/03/24 07:12:37;;;;;;;10.77;4.33;;;4.60;99.90;;;;;;4862949;29;20243;-88
2024/03/24 07:15:05;;;;;;;5.83;3.43;;;4.70;99.90;;;;;;4847035;29;20193;-84
2024/03/24 07:17:31;;;;;;;5.13;3.70;;;4.70;99.90;;;;;;4847305;29;20177;-88
2024/03/24 07:20:04;;;;;;;5.80;3.87;;;4.70;99.90;;;;;;4862536;29;20619;-86
2024/03/24 07:22:31;;;;;;;5.03;3.80;;;4.60;99.90;;;;;;4847428;29;20183;-87
2024/03/24 07:25:05;;;;;;;6.23;4.07;;;4.60;99.90;;;;;;4852387;29;20216;-88
2024/03/24 07:27:30;;;;;;;6.20;3.40;;;4.60;99.90;;;;;;4846925;29;20177;-85
2024/03/24 07:29:56;;;;;;;4.80;3.57;;;4.60;99.90;;;;;;4863474;29;20237;-88
2024/03/24 07:32:22;;;;;;;5.63;3.93;;;4.60;99.90;;;;;;4846951;29;20280;-89
2024/03/24 07:34:47;;;;;;;4.77;3.80;;;4.60;99.90;;;;;;4846740;29;20689;-87
2024/03/24 07:37:14;;;;;;;6.63;4.43;;;4.60;99.90;;;;;;4846424;29;20247;-87
2024/03/24 07:39:41;;;;;;;8.33;4.63;;;4.60;99.90;;;;;;4846638;29;20235;-89
2024/03/24 07:42:09;;;;;;;5.50;4.23;;;4.50;99.90;;;;;;4847276;29;20232;-90
2024/03/24 07:44:35;;;;;;;5.87;4.47;;;4.60;99.90;;;;;;4847771;29;20504;-89
2024/03/24 07:47:04;;;;;;;6.27;4.57;;;4.60;99.90;;;;;;4846947;29;20185;-88
2024/03/24 07:49:33;;;;;;;8.73;4.30;;;4.70;99.90;;;;;;4846846;29;20184;-88
2024/03/24 07:52:12;;;;;;;5.53;4.27;;;4.70;99.90;;;;;;4849140;29;20184;-90
2024/03/24 07:54:51;;;;;;;5.53;4.33;;;4.80;99.90;;;;;;4862402;29;20232;-86
2024/03/24 07:57:19;;;;;;;6.33;4.43;;;4.90;99.90;;;;;;4849566;29;20194;-91
2024/03/24 07:59:45;;;;;;;5.37;4.40;;;5.00;99.90;;;;;;4845128;29;20225;-88
2024/03/24 08:02:11;;;;;;;6.27;5.10;;;5.00;99.90;;;;;;4847419;29;20192;-86
2024/03/24 08:04:55;;;;;;;5.73;4.67;;;5.00;99.90;;;;;;4846243;29;20283;-87
2024/03/24 08:07:20;;;;;;;5.80;4.47;;;5.00;99.90;;;;;;4867196;29;20204;-87
2024/03/24 08:09:46;;;;;;;5.87;4.73;;;5.00;99.90;;;;;;4839131;29;20184;-87
2024/03/24 08:12:12;;;;;;;5.80;4.73;;;5.00;99.90;;;;;;4864686;29;20192;-87
2024/03/24 08:14:37;;;;;;;8.70;5.20;;;5.00;99.90;;;;;;4863207;29;20192;-89
2024/03/24 08:17:03;;;;;;;8.87;4.43;;;5.00;99.90;;;;;;4851155;29;20192;-90
2024/03/24 08:19:29;;;;;;;7.47;4.93;;;5.10;99.90;;;;;;4852621;29;20220;-86
2024/03/24 08:21:56;;;;;;;8.00;5.27;;;5.10;99.90;;;;;;4865218;29;20212;-86
2024/03/24 08:24:22;;;;;;;7.30;5.10;;;5.20;99.90;;;;;;4848659;29;20212;-87
2024/03/24 08:26:58;;;;;;;7.27;5.20;;;5.20;99.90;;;;;;4853676;29;20226;-92
2024/03/24 08:29:23;;;;;;;9.70;5.50;;;5.30;99.90;;;;;;4854037;29;20658;-91
2024/03/24 08:31:49;;;;;;;7.47;4.80;;;5.30;99.90;;;;;;4850066;29;20287;-90
2024/03/24 08:34:14;;;;;;;6.47;4.90;;;5.30;99.90;;;;;;4850978;29;20510;-86
2024/03/24 08:36:40;;;;;;;6.73;5.33;;;5.20;99.90;;;;;;4848586;29;20188;-87
2024/03/24 08:39:06;;;;;;;7.33;4.73;;;5.30;99.90;;;;;;4856546;29;20567;-87
2024/03/24 08:41:32;;;;;;;6.60;5.07;;;5.20;99.90;;;;;;4852346;29;20184;-88
2024/03/24 08:43:57;;;;;;;7.47;5.20;;;5.20;99.90;;;;;;4856340;29;20188;-88
2024/03/24 08:46:28;;;;;;;6.83;4.77;;;5.30;99.90;;;;;;4852211;29;20529;-88
2024/03/24 08:48:53;;;;;;;6.57;5.03;;;5.30;99.90;;;;;;4855946;29;20227;-92
2024/03/24 08:51:19;;;;;;;7.03;4.67;;;5.30;99.90;;;;;;4854875;29;20223;-90
2024/03/24 08:53:45;;;;;;;7.53;4.83;;;5.40;99.90;;;;;;4868066;29;20248;-90
2024/03/24 08:56:11;;;;;;;5.77;4.13;;;5.40;99.90;;;;;;4849595;29;20616;-90
2024/03/24 08:58:37;;;;;;;9.97;4.80;;;5.50;99.90;;;;;;4855115;29;20220;-88
2024/03/24 09:01:03;;;;;;;4.20;3.80;;;5.50;99.90;;;;;;4855288;29;20196;-86
2024/03/24 09:03:29;;;;;;;6.07;3.70;;;5.60;99.90;;;;;;4864054;29;20180;-90
2024/03/24 09:05:55;;;;;;;3.90;3.40;;;5.70;99.90;;;;;;4857918;29;20192;-89
2024/03/24 09:08:20;;;;;;;3.37;2.70;;;5.70;99.90;;;;;;4851847;29;20847;-86
2024/03/24 09:10:46;;;;;;;4.17;3.00;;;5.80;99.90;;;;;;4853462;29;20191;-86
2024/03/24 09:13:11;;;;;;;3.33;2.30;;;5.80;99.90;;;;;;4864960;29;20180;-91
2024/03/24 09:15:51;;;;;;;3.00;2.37;;;6.00;99.90;;;;;;4855730;29;20651;-90
2024/03/24 09:18:16;;;;;;;3.43;2.20;;;6.00;99.90;;;;;;4864326;29;20212;-90
2024/03/24 09:20:42;;;;;;;2.23;1.97;;;5.90;99.90;;;;;;4857283;29;20199;-92
2024/03/24 09:23:08;;;;;;;2.67;2.20;;;5.80;99.90;;;;;;4864307;29;20271;-88
2024/03/24 09:25:33;;;;;;;3.33;2.00;;;5.80;99.90;;;;;;4853484;29;20636;-88
2024/03/24 09:28:05;;;;;;;2.60;2.03;;;5.80;99.90;;;;;;4869591;29;20196;-90
2024/03/24 09:30:31;;;;;;;2.93;2.30;;;5.80;99.90;;;;;;4856515;29;20185;-90
2024/03/24 09:32:57;;;;;;;2.40;2.07;;;5.80;99.90;;;;;;4853772;29;20211;-91
2024/03/24 09:35:23;;;;;;;2.10;1.90;;;5.90;99.90;;;;;;4862795;29;20523;-90
2024/03/24 09:38:12;;;;;;;2.00;1.80;;;6.00;99.90;;;;;;4862021;29;20628;-88
2024/03/24 09:40:38;;;;;;;2.00;1.70;;;5.90;99.90;;;;;;4864485;29;20189;-90
2024/03/24 09:43:04;;;;;;;2.40;1.83;;;5.90;99.90;;;;;;4858582;29;20185;-89
2024/03/24 09:45:31;;;;;;;4.23;2.00;;;5.90;99.90;;;;;;4854922;29;20565;-88
2024/03/24 09:47:59;;;;;;;2.77;2.27;;;5.90;99.90;;;;;;4873809;29;20180;-90
2024/03/24 09:50:25;;;;;;;2.50;2.30;;;5.80;99.90;;;;;;4860543;29;20212;-89
2024/03/24 09:52:54;;;;;;;3.57;2.37;;;5.90;99.90;;;;;;4855474;29;20240;-91
2024/03/24 09:55:27;;;;;;;2.87;2.37;;;5.90;99.90;;;;;;4863085;29;20519;-89
2024/03/24 09:57:58;;;;;;;3.70;2.20;;;5.90;99.90;;;;;;4855348;29;20189;-89
2024/03/24 10:00:24;;;;;;;3.20;2.40;;;5.90;99.90;;;;;;4856997;29;20188;-89
2024/03/24 10:02:50;;;;;;;3.83;2.70;;;5.90;99.90;;;;;;4855658;29;20200;-88
2024/03/24 10:05:16;;;;;;;4.27;3.27;;;6.10;99.90;;;;;;4877766;29;20267;-94
2024/03/24 10:07:44;;;;;;;3.57;3.00;;;6.20;99.90;;;;;;4873931;29;20614;-93
2024/03/24 10:10:11;;;;;;;3.27;2.90;;;6.40;99.90;;;;;;4862867;29;20188;-88
2024/03/24 10:12:40;;;;;;;3.90;2.97;;;6.50;99.90;;;;;;4870775;29;20210;-87
2024/03/24 10:15:22;;;;;;;3.67;2.93;;;6.60;99.90;;;;;;4854407;29;20180;-91
2024/03/24 10:18:24;;;;;;;3.87;2.90;;;6.70;99.90;;;;;;4882291;29;20191;-93
2024/03/24 10:20:50;;;;;;;3.50;2.90;;;6.90;99.90;;;;;;4863512;29;20195;-91
2024/03/24 10:23:15;;;;;;;3.40;2.87;;;7.10;99.90;;;;;;4858913;29;20195;-87
2024/03/24 10:25:41;;;;;;;6.03;2.57;;;7.10;99.90;;;;;;4866972;29;20660;-90
2024/03/24 10:28:13;;;;;;;6.73;3.13;;;7.10;99.90;;;;;;4853098;29;20241;-90
2024/03/24 10:30:52;;;;;;;5.23;3.03;;;7.10;99.90;;;;;;4851758;29;20218;-89
2024/03/24 10:33:17;;;;;;;5.90;2.93;;;7.20;99.90;;;;;;4852965;29;20219;-91
2024/03/24 10:35:47;;;;;;;6.40;2.70;;;7.20;99.90;;;;;;4869922;29;20203;-90
2024/03/24 10:38:16;;;;;;;4.53;3.07;;;7.20;99.90;;;;;;4853298;29;20299;-87
2024/03/24 10:40:42;;;;;;;4.37;2.60;;;7.20;99.90;;;;;;4850397;29;20217;-89
2024/03/24 10:43:09;;;;;;;5.97;2.53;;;7.30;99.90;;;;;;4859207;29;20245;-88
2024/03/24 10:45:35;;;;;;;2.10;1.90;;;7.30;99.90;;;;;;4865517;29;20188;-88
2024/03/24 10:48:32;;;;;;;4.57;2.30;;;7.20;99.90;;;;;;4866448;29;20177;-88
2024/03/24 10:50:59;;;;;;;3.13;2.10;;;7.20;99.90;;;;;;4876875;29;20233;-95
2024/03/24 10:53:27;;;;;;;2.70;2.40;;;7.20;99.90;;;;;;4867986;29;20236;-89
2024/03/24 10:55:56;;;;;;;3.97;2.90;;;7.10;99.90;;;;;;4872576;29;20185;-93
2024/03/24 10:58:23;;;;;;;7.47;2.50;;;7.20;99.90;;;;;;4883542;29;20203;-92
2024/03/24 11:00:50;;;;;;;5.27;2.30;;;7.20;99.90;;;;;;4857551;29;20577;-94
2024/03/24 11:03:17;;;;;;;5.67;2.30;;;7.10;99.90;;;;;;4858524;29;20200;-90
2024/03/24 11:05:47;;;;;;;5.17;2.33;;;7.10;99.90;;;;;;4859004;29;20196;-91
2024/03/24 11:08:24;;;;;;;4.87;2.17;;;7.10;99.90;;;;;;4861564;29;20684;-91
2024/03/24 11:10:54;;;;;;;4.97;2.50;;;7.10;99.90;;;;;;4867264;29;20632;-93
2024/03/24 11:13:33;;;;;;;3.77;2.40;;;7.20;99.90;;;;;;4856875;29;20216;-88
2024/03/24 11:15:59;;;;;;;5.03;2.33;;;7.30;99.90;;;;;;4868839;29;20184;-91
2024/03/24 11:18:33;;;;;;;8.93;2.23;;;7.40;99.90;;;;;;4859584;29;20219;-89
2024/03/24 11:21:08;;;;;;;3.93;2.00;;;7.50;99.90;;;;;;4867440;29;20316;-92
2024/03/24 11:23:38;;;;;;;3.67;2.23;;;7.50;99.90;;;;;;4864437;29;20230;-89
2024/03/24 11:26:08;;;;;;;2.83;1.60;;;7.60;99.90;;;;;;4867369;29;20191;-91
2024/03/24 11:28:50;;;;;;;5.30;1.90;;;7.60;99.90;;;;;;4849619;29;20184;-90
2024/03/24 11:31:32;;;;;;;3.50;1.83;;;7.60;99.90;;;;;;4855420;29;20188;-90
2024/03/24 11:34:03;;;;;;;9.00;2.03;;;7.70;99.90;;;;;;4866755;29;20270;-92
2024/03/24 11:36:32;;;;;;;6.67;2.00;;;7.70;99.90;;;;;;4869220;29;20189;-90
2024/03/24 11:39:11;;;;;;;3.73;1.70;;;7.90;99.90;;;;;;4866034;29;20213;-92
2024/03/24 11:41:37;;;;;;;3.60;1.67;;;7.90;99.90;;;;;;4847521;29;20211;-91
2024/03/24 11:44:04;;;;;;;4.47;1.47;;;8.00;99.90;;;;;;4850825;29;20321;-90
2024/03/24 11:46:31;;;;;;;2.30;1.40;;;8.10;99.90;;;;;;4849984;29;20196;-90
2024/03/24 11:49:01;;;;;;;4.70;1.43;;;7.90;99.90;;;;;;4867270;29;20180;-88
2024/03/24 11:51:29;;;;;;;4.73;1.67;;;7.90;99.90;;;;;;4863893;29;20189;-92
2024/03/24 11:53:56;;;;;;;5.83;1.60;;;7.90;99.90;;;;;;4854015;29;20239;-89
2024/03/24 11:56:23;;;;;;;6.90;2.10;;;7.90;99.90;;;;;;4857797;29;20613;-91
2024/03/24 11:58:54;;;;;;;6.43;1.40;;;7.90;99.90;;;;;;4851612;29;20306;-91
2024/03/24 12:01:20;;;;;;;3.27;1.40;;;8.00;99.90;;;;;;4864255;29;20621;-91
2024/03/24 12:03:47;;;;;;;3.80;1.33;;;8.00;99.90;;;;;;4850563;29;20537;-90
2024/03/24 12:06:15;;;;;;;5.77;1.90;;;8.30;99.90;;;;;;4864607;29;20196;-89
2024/03/24 12:08:51;;;;;;;4.30;1.20;;;8.70;99.90;;;;;;4863997;29;20192;-92
2024/03/24 12:11:17;;;;;;;3.83;1.27;;;8.90;99.90;;;;;;4841170;29;20192;-93
2024/03/24 12:13:43;;;;;;;4.83;1.40;;;8.90;99.90;;;;;;4839577;29;20275;-92
2024/03/24 12:16:15;;;;;;;5.13;1.20;;;9.20;99.90;;;;;;4841003;29;20216;-92
2024/03/24 12:18:54;;;;;;;4.93;1.42;;;9.40;99.90;;;;;;4837425;29;20273;-91
2024/03/24 12:21:21;;;;;;;6.30;1.57;;;9.50;99.90;;;;;;4835454;29;21684;-93
2024/03/24 12:23:47;;;;;;;6.37;1.53;;;9.40;99.90;;;;;;4843562;29;20276;-91
2024/03/24 12:26:20;;;;;;;4.32;1.65;;;9.50;99.90;;;;;;4844077;29;20612;-93
2024/03/24 12:29:22;;;;;;;3.77;1.20;;;9.20;99.90;;;;;;4865930;29;20188;-91
2024/03/24 12:31:49;;;;;;;4.73;1.23;;;8.90;99.90;;;;;;4868344;29;20249;-92
2024/03/24 12:34:15;;;;;;;3.97;1.93;;;8.80;99.90;;;;;;4860691;29;20512;-87
2024/03/24 12:36:41;;;;;;;4.17;1.47;;;8.60;99.90;;;;;;4862702;29;20190;-93
2024/03/24 12:39:09;;;;;;;3.83;1.43;;;8.50;99.90;;;;;;4856445;29;20227;-92
2024/03/24 12:41:35;;;;;;;7.00;1.50;;;8.30;99.90;;;;;;4852163;29;20192;-88
2024/03/24 12:44:01;;;;;;;7.20;1.60;;;8.20;99.90;;;;;;4868798;29;20531;-90
2024/03/24 12:46:38;;;;;;;3.53;1.40;;;8.20;99.90;;;;;;4855785;29;20275;-91
2024/03/24 12:49:15;;;;;;;6.20;1.80;;;8.20;99.90;;;;;;4853398;29;20184;-92
2024/03/24 12:51:44;;;;;;;5.10;1.50;;;8.10;99.90;;;;;;4875465;29;20179;-95
2024/03/24 12:54:31;;;;;;;5.20;1.70;;;8.10;99.90;;;;;;4868506;29;20235;-89
2024/03/24 12:56:57;;;;;;;3.67;1.60;;;8.00;99.90;;;;;;4866085;29;20191;-91
2024/03/24 12:59:25;;;;;;;6.30;1.90;;;8.00;99.90;;;;;;4869517;29;20204;-91
2024/03/24 13:01:52;;;;;;;5.43;1.97;;;8.10;99.90;;;;;;4849590;29;20620;-93
2024/03/24 13:04:19;;;;;;;3.67;1.90;;;8.00;99.90;;;;;;4859879;29;20192;-92
2024/03/24 13:06:52;;;;;;;6.17;1.80;;;8.00;99.90;;;;;;4855607;29;20271;-91